EGGP

Liverpool John Lennon Airport

Liverpool, United Kingdom
TAF EGGP 230455Z 2306/2406 27017KT 9999 SCT020 TEMPO 2306/2403 27020G30KT PROB30 TEMPO 2315/2406 BKN012
Issued Valid From Valid To
Oct-23 @ 04:55 UTC
(an hour ago)
Oct-23 @ 06:00 UTC
(4 minutes ago)
Oct-24 @ 06:00 UTC
(in 24 hours)
Oct-23 @ 06:00 to Oct-24 @ 06:00
TAF EGGP 230455Z 2306/2406 27017KT 9999 SCT020
Wind Visibility Clouds
270° at 17 knots 10,000+ meters
  • Scattered at 2,000' AGL
Temporary Oct-23 @ 06:00 to Oct-24 @ 03:00
TEMPO 2306/2403 27020G30KT
Wind
270° at 20 knots
 Gusting to 30 knots
Temporary  (Probability 30%) Oct-23 @ 15:00 to Oct-24 @ 06:00
PROB30 TEMPO 2315/2406 BKN012
Clouds
  • Broken at 1,200' AGL
TAF EGGP 230455Z 2306/2406 27017KT 9999 SCT020 TEMPO 2306/2403 27020G30KT PROB30 TEMPO 2315/2406 BKN012
Issued Oct-23 @ 04:55 UTC
(an hour ago)
Valid From Oct-23 @ 06:00 UTC
(4 minutes ago)
Valid To Oct-24 @ 06:00 UTC
(in 24 hours)
Oct-23 @ 06:00 - Oct-24 @ 06:00
Wind Visibility
270° at 17 knots 10,000+ meters
Clouds
  • Scattered at 2,000' AGL
Temporary Oct-23 @ 06:00 - Oct-24 @ 03:00
Wind
270° at 20 knots
 Gusting to 30 knots
Probability 30% Temporary Oct-23 @ 15:00 - Oct-24 @ 06:00
Clouds
  • Broken at 1,200' AGL